createdAt,value
2022-11-16T00:01:04.795Z,6.39
2022-11-16T00:03:37.032Z,6.40
2022-11-16T00:06:10.427Z,6.40
2022-11-16T00:08:45.624Z,6.39
2022-11-16T00:11:19.174Z,6.37
2022-11-16T00:13:50.923Z,6.39
2022-11-16T00:16:24.936Z,6.38
2022-11-16T00:19:01.098Z,6.38
2022-11-16T00:21:33.961Z,6.41
2022-11-16T00:24:06.957Z,6.40
2022-11-16T00:26:38.743Z,6.38
2022-11-16T00:29:14.926Z,6.34
2022-11-16T00:31:46.913Z,6.32
2022-11-16T00:34:25.970Z,6.31
2022-11-16T00:36:57.719Z,6.32
2022-11-16T00:39:29.489Z,6.33
2022-11-16T00:42:01.255Z,6.34
2022-11-16T00:44:33.101Z,6.30
2022-11-16T00:47:04.928Z,6.27
2022-11-16T00:49:38.548Z,6.28
2022-11-16T00:52:10.335Z,6.33
2022-11-16T00:54:42.187Z,6.39
2022-11-16T00:57:13.894Z,6.36
2022-11-16T00:59:45.777Z,6.34
2022-11-16T01:02:17.555Z,6.26
2022-11-16T01:04:49.381Z,6.22
2022-11-16T01:07:22.266Z,6.23
2022-11-16T01:09:54.135Z,6.24
2022-11-16T01:12:27.766Z,6.21
2022-11-16T01:14:59.706Z,6.18
2022-11-16T01:17:31.432Z,6.15
2022-11-16T01:20:10.922Z,6.10
2022-11-16T01:22:43.267Z,6.13
2022-11-16T01:25:19.612Z,6.11
2022-11-16T01:27:51.475Z,6.13
2022-11-16T01:30:26.763Z,6.12
2022-11-16T01:32:58.532Z,6.08
2022-11-16T01:35:30.415Z,6.06
2022-11-16T01:38:02.192Z,6.05
2022-11-16T01:40:33.967Z,6.04
2022-11-16T01:43:13.333Z,6.01
2022-11-16T01:45:47.771Z,5.98
2022-11-16T01:48:25.397Z,5.93
2022-11-16T01:50:58.991Z,5.92
2022-11-16T01:53:30.818Z,5.95
2022-11-16T01:56:02.717Z,6.00
2022-11-16T01:58:34.886Z,6.01
2022-11-16T02:01:07.223Z,6.01
2022-11-16T02:03:43.713Z,6.01
2022-11-16T02:06:46.668Z,6.02
2022-11-16T02:09:58.849Z,6.03
2022-11-16T02:12:53.784Z,6.02
2022-11-16T02:15:32.181Z,6.03
2022-11-16T02:18:16.886Z,6.08
2022-11-16T02:20:59.884Z,6.12
2022-11-16T02:24:03.160Z,6.16
2022-11-16T02:27:11.074Z,6.15
2022-11-16T02:29:46.965Z,6.10
2022-11-16T02:32:25.001Z,6.06
2022-11-16T02:35:02.237Z,6.09
2022-11-16T02:37:37.571Z,6.11
2022-11-16T02:40:14.209Z,6.11
2022-11-16T02:42:51.124Z,6.11
2022-11-16T02:45:25.631Z,6.06
2022-11-16T02:48:02.345Z,6.01
2022-11-16T02:50:36.278Z,6.01
2022-11-16T02:53:08.007Z,6.05
2022-11-16T02:55:39.783Z,6.05
2022-11-16T02:58:13.983Z,6.01
2022-11-16T03:00:52.340Z,6.00
2022-11-16T03:03:31.137Z,6.01
2022-11-16T03:06:08.857Z,6.03
2022-11-16T03:08:44.364Z,6.03
2022-11-16T03:11:34.260Z,6.04
2022-11-16T03:14:10.775Z,6.01
2022-11-16T03:16:45.117Z,5.99
2022-11-16T03:19:23.169Z,5.97
2022-11-16T03:22:00.655Z,6.00
2022-11-16T03:24:32.823Z,5.99
2022-11-16T03:27:13.496Z,5.96
2022-11-16T03:29:50.232Z,5.96
2022-11-16T03:32:29.514Z,5.99
2022-11-16T03:35:05.574Z,6.02
2022-11-16T03:37:48.424Z,6.08
2022-11-16T03:40:25.102Z,6.11
2022-11-16T03:42:59.072Z,6.05
2022-11-16T03:45:32.361Z,6.02
2022-11-16T03:48:04.136Z,6.01
2022-11-16T03:50:36.105Z,5.96
2022-11-16T03:53:07.846Z,5.91
2022-11-16T03:55:39.559Z,5.84
2022-11-16T03:58:11.525Z,5.83
2022-11-16T04:00:43.241Z,5.83
2022-11-16T04:03:14.985Z,5.80
2022-11-16T04:06:04.115Z,5.78
2022-11-16T04:08:53.451Z,5.79
2022-11-16T04:11:48.738Z,5.82
2022-11-16T04:14:41.764Z,5.84
2022-11-16T04:17:33.195Z,5.83
2022-11-16T04:20:22.458Z,5.78
2022-11-16T04:23:15.349Z,5.74
2022-11-16T04:25:47.980Z,5.69
2022-11-16T04:28:23.930Z,5.67
2022-11-16T04:31:15.608Z,5.66
2022-11-16T04:34:05.318Z,5.64
2022-11-16T04:36:54.782Z,5.61
2022-11-16T04:39:26.515Z,5.62
2022-11-16T04:42:16.357Z,5.61
2022-11-16T04:45:05.780Z,5.61
2022-11-16T04:47:37.493Z,5.59
2022-11-16T04:50:11.910Z,5.63
2022-11-16T04:52:43.598Z,5.65
2022-11-16T04:55:15.750Z,5.64
2022-11-16T04:57:47.391Z,5.62
2022-11-16T05:00:26.815Z,5.58
2022-11-16T05:03:01.594Z,5.52
2022-11-16T05:05:33.629Z,5.50
2022-11-16T05:08:05.423Z,5.50
2022-11-16T05:10:37.346Z,5.53
2022-11-16T05:13:08.979Z,5.50
2022-11-16T05:15:40.726Z,5.48
2022-11-16T05:18:12.393Z,5.44
2022-11-16T05:21:01.815Z,5.42
2022-11-16T05:24:05.884Z,5.41
2022-11-16T05:26:38.811Z,5.38
2022-11-16T05:29:10.561Z,5.39
2022-11-16T05:31:42.219Z,5.40
2022-11-16T05:34:14.233Z,5.41
2022-11-16T05:36:45.888Z,5.44
2022-11-16T05:39:17.783Z,5.49
2022-11-16T05:41:49.747Z,5.52
2022-11-16T05:44:21.672Z,5.53
2022-11-16T05:46:53.584Z,5.55
2022-11-16T05:49:25.572Z,5.52
2022-11-16T05:51:57.307Z,5.54
2022-11-16T05:54:29.001Z,5.55
2022-11-16T05:57:00.728Z,5.57
2022-11-16T05:59:32.432Z,5.59
2022-11-16T06:02:04.934Z,5.60
2022-11-16T06:04:36.685Z,5.55
2022-11-16T06:07:08.404Z,5.54
2022-11-16T06:09:46.203Z,5.52
2022-11-16T06:12:17.915Z,5.54
2022-11-16T06:14:49.645Z,5.54
2022-11-16T06:17:21.291Z,5.56
2022-11-16T06:19:53.051Z,5.61
2022-11-16T06:22:24.860Z,5.64
2022-11-16T06:24:56.577Z,5.68
2022-11-16T06:27:28.431Z,5.68
2022-11-16T06:30:00.934Z,5.70
2022-11-16T06:32:32.597Z,5.75
2022-11-16T06:35:05.274Z,5.78
2022-11-16T06:37:38.321Z,5.78
2022-11-16T06:40:15.695Z,5.79
2022-11-16T06:42:47.339Z,5.76
2022-11-16T06:45:19.241Z,5.75
2022-11-16T06:47:50.936Z,5.75
2022-11-16T06:50:25.870Z,5.77
2022-11-16T06:53:00.828Z,5.81
2022-11-16T06:55:37.387Z,5.83
2022-11-16T06:58:09.510Z,5.86
2022-11-16T07:00:42.841Z,5.86
2022-11-16T07:03:14.672Z,5.86
2022-11-16T07:05:46.472Z,5.82
2022-11-16T07:08:18.794Z,5.83
2022-11-16T07:10:50.579Z,5.86
2022-11-16T07:13:22.230Z,5.88
2022-11-16T07:15:53.948Z,5.93
2022-11-16T07:18:25.548Z,5.96
2022-11-16T07:20:57.248Z,6.01
2022-11-16T07:23:31.092Z,6.03
2022-11-16T07:26:04.344Z,6.02
2022-11-16T07:28:36.732Z,6.05
2022-11-16T07:31:11.210Z,6.04
2022-11-16T07:33:43.238Z,6.04
2022-11-16T07:36:16.760Z,6.04
2022-11-16T07:38:48.400Z,6.03
2022-11-16T07:41:21.220Z,6.05
2022-11-16T07:43:53.475Z,6.07
2022-11-16T07:46:45.868Z,6.06
2022-11-16T07:49:19.249Z,6.13
2022-11-16T07:51:50.980Z,6.13
2022-11-16T07:54:23.030Z,6.12
2022-11-16T07:56:54.708Z,6.11
2022-11-16T07:59:27.496Z,6.12
2022-11-16T08:02:00.141Z,6.16
2022-11-16T08:04:32.090Z,6.17
2022-11-16T08:07:03.935Z,6.22
2022-11-16T08:09:38.125Z,6.27
2022-11-16T08:12:10.002Z,6.32
2022-11-16T08:14:41.678Z,6.37
2022-11-16T08:17:14.543Z,6.40
2022-11-16T08:20:38.954Z,6.43
2022-11-16T08:23:12.910Z,6.43
2022-11-16T08:25:44.643Z,6.43
2022-11-16T08:28:16.557Z,6.43
2022-11-16T08:30:53.655Z,6.49
2022-11-16T08:33:26.519Z,6.58
2022-11-16T08:35:59.608Z,6.63
2022-11-16T08:38:31.955Z,6.66
2022-11-16T08:41:04.067Z,6.70
2022-11-16T08:43:36.140Z,6.73
2022-11-16T08:46:08.548Z,6.76
2022-11-16T08:48:41.030Z,6.76
2022-11-16T08:51:18.590Z,6.74
2022-11-16T08:53:51.374Z,6.69
2022-11-16T08:56:23.151Z,6.64
2022-11-16T08:58:58.981Z,6.63
2022-11-16T09:01:33.265Z,6.61
2022-11-16T09:04:05.011Z,6.61
2022-11-16T09:06:38.826Z,6.61
2022-11-16T09:09:11.547Z,6.60
2022-11-16T09:11:43.413Z,6.60
2022-11-16T09:14:16.690Z,6.64
2022-11-16T09:16:48.531Z,6.69
2022-11-16T09:19:21.154Z,6.72
2022-11-16T09:21:52.965Z,6.76
2022-11-16T09:24:25.400Z,6.78
2022-11-16T09:27:11.934Z,6.85
2022-11-16T09:29:44.322Z,6.90
2022-11-16T09:35:45.187Z,7.00
2022-11-16T09:38:24.170Z,7.01
2022-11-16T09:41:21.590Z,7.00
2022-11-16T09:44:04.494Z,7.05
2022-11-16T09:46:40.181Z,7.08
2022-11-16T09:49:17.985Z,7.06
2022-11-16T09:51:55.116Z,7.06
2022-11-16T09:54:30.903Z,7.06
2022-11-16T09:57:12.004Z,7.04
2022-11-16T09:59:48.769Z,7.04
2022-11-16T10:02:25.025Z,7.01
2022-11-16T10:05:04.786Z,7.01
2022-11-16T10:07:43.228Z,7.00
2022-11-16T10:10:34.198Z,7.00
2022-11-16T10:13:22.284Z,7.01
2022-11-16T10:16:03.852Z,7.03
2022-11-16T10:18:48.697Z,7.02
2022-11-16T10:21:46.357Z,7.01
2022-11-16T10:24:34.336Z,7.03
2022-11-16T10:27:22.373Z,7.06
2022-11-16T10:30:03.596Z,7.09
2022-11-16T10:32:52.142Z,7.06
2022-11-16T10:35:31.312Z,6.98
2022-11-16T10:38:04.583Z,6.96
2022-11-16T10:40:40.143Z,6.94
2022-11-16T10:43:17.802Z,6.93
2022-11-16T10:45:58.076Z,6.84
2022-11-16T10:48:39.692Z,6.78
2022-11-16T10:51:12.755Z,6.76
2022-11-16T10:53:46.522Z,6.75
2022-11-16T10:56:22.453Z,6.73
2022-11-16T10:58:59.751Z,6.73
2022-11-16T11:01:36.572Z,6.67
2022-11-16T11:04:21.161Z,6.65
2022-11-16T11:06:55.305Z,6.57
2022-11-16T11:09:30.611Z,6.50
2022-11-16T11:12:33.148Z,6.46
2022-11-16T11:15:27.217Z,6.40
2022-11-16T11:18:20.215Z,6.44
2022-11-16T11:21:05.951Z,6.51
2022-11-16T11:23:45.561Z,6.53
2022-11-16T11:26:42.216Z,6.53
2022-11-16T11:29:26.751Z,6.59
2022-11-16T11:32:05.777Z,6.64
2022-11-16T11:34:43.525Z,6.69
2022-11-16T11:37:20.394Z,6.64
2022-11-16T11:40:11.528Z,6.63
2022-11-16T11:42:52.625Z,6.66
2022-11-16T11:45:31.220Z,6.67
2022-11-16T11:48:04.460Z,6.65
2022-11-16T11:50:50.785Z,6.66
2022-11-16T11:53:38.671Z,6.69
2022-11-16T11:56:13.466Z,6.73
2022-11-16T11:58:48.010Z,6.72
2022-11-16T12:01:35.111Z,6.74
2022-11-16T12:04:51.490Z,6.73
2022-11-16T12:07:34.866Z,6.74
2022-11-16T12:10:17.019Z,6.76
2022-11-16T12:13:04.474Z,6.74
2022-11-16T12:15:51.347Z,6.68
2022-11-16T12:18:37.352Z,6.66
2022-11-16T12:21:23.733Z,6.57
2022-11-16T12:24:17.609Z,6.54
2022-11-16T12:27:03.268Z,6.54
2022-11-16T12:29:45.597Z,6.53
2022-11-16T12:32:44.918Z,6.50
2022-11-16T12:35:38.307Z,6.49
2022-11-16T12:38:27.786Z,6.55
2022-11-16T12:41:27.065Z,6.57
2022-11-16T12:44:02.936Z,6.49
2022-11-16T12:46:48.343Z,6.50
2022-11-16T12:49:40.610Z,6.50
2022-11-16T12:52:53.767Z,6.51
2022-11-16T12:55:33.849Z,6.51
2022-11-16T12:58:20.536Z,6.53
2022-11-16T13:01:06.410Z,6.55
2022-11-16T13:03:43.803Z,6.52
2022-11-16T13:06:22.684Z,6.52
2022-11-16T13:09:04.571Z,6.49
2022-11-16T13:11:41.372Z,6.45
2022-11-16T13:14:18.583Z,6.41
2022-11-16T13:16:51.221Z,6.40
2022-11-16T13:19:23.766Z,6.40
2022-11-16T13:22:03.232Z,6.38
2022-11-16T13:24:46.093Z,6.37
2022-11-16T13:27:29.823Z,6.39
2022-11-16T13:30:11.194Z,6.41
2022-11-16T13:32:57.102Z,6.43
2022-11-16T13:35:29.472Z,6.36
2022-11-16T13:38:02.973Z,6.35
2022-11-16T13:40:35.985Z,6.37
2022-11-16T13:43:17.786Z,6.38
2022-11-16T13:46:01.469Z,6.37
2022-11-16T13:48:36.430Z,6.37
2022-11-16T13:51:29.142Z,6.38
2022-11-16T13:54:44.778Z,6.40
2022-11-16T13:56:56.717Z,6.38
2022-11-16T13:59:31.957Z,6.37
2022-11-16T14:02:05.881Z,6.36
2022-11-16T14:04:43.469Z,6.36
2022-11-16T14:07:37.284Z,6.36
2022-11-16T14:10:13.782Z,6.33
2022-11-16T14:12:55.284Z,6.30
2022-11-16T14:15:34.835Z,6.25
2022-11-16T14:18:35.244Z,6.24
2022-11-16T14:21:16.337Z,6.21
2022-11-16T14:24:07.666Z,6.19
2022-11-16T14:26:53.343Z,6.19
2022-11-16T14:29:37.509Z,6.18
2022-11-16T14:32:22.615Z,6.18
2022-11-16T14:34:56.873Z,6.20
2022-11-16T14:37:35.657Z,6.21
2022-11-16T14:40:18.056Z,6.19
2022-11-16T14:43:16.079Z,6.22
2022-11-16T14:45:56.690Z,6.21
2022-11-16T14:48:29.250Z,6.16
2022-11-16T14:51:09.575Z,6.09
2022-11-16T14:53:50.289Z,6.06
2022-11-16T14:56:22.967Z,6.03
2022-11-16T14:58:59.007Z,6.05
2022-11-16T15:01:34.382Z,6.08
2022-11-16T15:04:08.497Z,6.05
2022-11-16T15:06:44.853Z,6.04
2022-11-16T15:09:22.472Z,6.03
2022-11-16T15:12:13.067Z,6.01
2022-11-16T15:14:51.483Z,5.98
2022-11-16T15:17:30.117Z,5.94
2022-11-16T15:20:15.845Z,5.88
2022-11-16T15:22:49.328Z,5.82
2022-11-16T15:25:31.168Z,5.81
2022-11-16T15:28:05.343Z,5.81
2022-11-16T15:30:40.231Z,5.80
2022-11-16T15:33:17.983Z,5.77
2022-11-16T15:35:54.069Z,5.76
2022-11-16T15:38:27.345Z,5.75
2022-11-16T15:41:01.411Z,5.71
2022-11-16T15:43:45.169Z,5.71
2022-11-16T15:46:29.026Z,5.75
2022-11-16T15:49:01.566Z,5.77
2022-11-16T15:51:34.286Z,5.77
2022-11-16T15:54:27.587Z,5.77
2022-11-16T15:57:08.082Z,5.73
2022-11-16T15:59:48.679Z,5.69
2022-11-16T16:02:23.304Z,5.69
2022-11-16T16:04:55.020Z,5.71
2022-11-16T16:07:43.831Z,5.67
2022-11-16T16:10:25.900Z,5.66
2022-11-16T16:12:59.438Z,5.61
2022-11-16T16:15:36.266Z,5.59
2022-11-16T16:18:38.100Z,5.56
2022-11-16T16:21:11.464Z,5.53
2022-11-16T16:23:49.004Z,5.52
2022-11-16T16:26:21.061Z,5.51
2022-11-16T16:28:53.060Z,5.53
2022-11-16T16:31:24.940Z,5.50
2022-11-16T16:33:56.770Z,5.48
2022-11-16T16:36:28.410Z,5.45
2022-11-16T16:38:59.990Z,5.45
2022-11-16T16:41:31.784Z,5.44
2022-11-16T16:44:05.791Z,5.43
2022-11-16T16:46:37.395Z,5.48
2022-11-16T16:49:09.064Z,5.52
2022-11-16T16:51:40.742Z,5.55
2022-11-16T16:54:15.602Z,5.59
2022-11-16T16:56:47.364Z,5.64
2022-11-16T16:59:19.065Z,5.67
2022-11-16T17:01:50.927Z,5.61
2022-11-16T17:04:22.761Z,5.54
2022-11-16T17:06:54.859Z,5.45
2022-11-16T17:09:26.592Z,5.38
2022-11-16T17:12:11.621Z,5.36
2022-11-16T17:14:51.535Z,5.35
2022-11-16T17:17:25.436Z,5.30
2022-11-16T17:19:57.198Z,5.26
2022-11-16T17:22:29.034Z,5.23
2022-11-16T17:25:01.152Z,5.22
2022-11-16T17:27:33.025Z,5.20
2022-11-16T17:30:05.131Z,5.17
2022-11-16T17:32:44.532Z,5.13
2022-11-16T17:35:16.459Z,5.13
2022-11-16T17:37:48.216Z,5.13
2022-11-16T17:40:23.706Z,5.12
2022-11-16T17:42:56.515Z,5.14
2022-11-16T17:45:28.331Z,5.18
2022-11-16T17:48:02.984Z,5.19
2022-11-16T17:50:34.772Z,5.19
2022-11-16T17:53:08.828Z,5.16
2022-11-16T17:55:45.007Z,5.14
2022-11-16T17:58:19.607Z,5.17
2022-11-16T18:00:54.318Z,5.15
2022-11-16T18:03:28.540Z,5.11
2022-11-16T18:06:09.391Z,5.07
2022-11-16T18:08:45.671Z,5.04
2022-11-16T18:11:21.960Z,5.07
2022-11-16T18:13:58.442Z,5.09
2022-11-16T18:16:36.158Z,5.05
2022-11-16T18:19:10.596Z,5.06
2022-11-16T18:21:42.948Z,5.07
2022-11-16T18:24:15.979Z,5.09
2022-11-16T18:26:47.685Z,5.07
2022-11-16T18:29:19.437Z,5.02
2022-11-16T18:31:51.154Z,5.01
2022-11-16T18:34:22.908Z,4.93
2022-11-16T18:36:54.611Z,4.86
2022-11-16T18:39:26.336Z,4.82
2022-11-16T18:41:59.403Z,4.76
2022-11-16T18:44:31.082Z,4.73
2022-11-16T18:47:03.188Z,4.69
2022-11-16T18:49:34.899Z,4.62
2022-11-16T18:52:08.586Z,4.59
2022-11-16T18:54:40.306Z,4.59
2022-11-16T18:57:14.973Z,4.60
2022-11-16T18:59:47.968Z,4.58
2022-11-16T19:02:19.615Z,4.52
2022-11-16T19:04:51.333Z,4.46
2022-11-16T19:07:23.188Z,4.47
2022-11-16T19:09:54.922Z,4.45
2022-11-16T19:12:26.702Z,4.44
2022-11-16T19:14:58.482Z,4.46
2022-11-16T19:17:33.033Z,4.48
2022-11-16T19:20:04.905Z,4.50
2022-11-16T19:22:36.744Z,4.48
2022-11-16T19:25:10.492Z,4.49
2022-11-16T19:27:42.176Z,4.50
2022-11-16T19:30:25.696Z,4.48
2022-11-16T19:33:00.724Z,4.52
2022-11-16T19:35:32.601Z,4.55
2022-11-16T19:38:04.313Z,4.55
2022-11-16T19:40:39.456Z,4.58
2022-11-16T19:43:11.080Z,4.49
2022-11-16T19:45:42.729Z,4.48
2022-11-16T19:48:14.644Z,4.40
2022-11-16T19:50:46.338Z,4.40
2022-11-16T19:53:18.101Z,4.45
2022-11-16T19:55:56.681Z,4.42
2022-11-16T19:58:28.668Z,4.33
2022-11-16T20:01:04.863Z,4.27
2022-11-16T20:03:38.314Z,4.22
2022-11-16T20:06:14.330Z,4.20
2022-11-16T20:08:50.150Z,4.13
2022-11-16T20:11:24.608Z,4.04
2022-11-16T20:13:58.480Z,4.00
2022-11-16T20:16:38.404Z,3.91
2022-11-16T20:19:12.608Z,3.86
2022-11-16T20:21:45.676Z,3.83
2022-11-16T20:24:19.014Z,3.80
2022-11-16T20:26:51.460Z,3.78
2022-11-16T20:29:24.512Z,3.76
2022-11-16T20:31:56.249Z,3.73
2022-11-16T20:34:30.005Z,3.77
2022-11-16T20:37:01.722Z,3.76
2022-11-16T20:39:33.521Z,3.71
2022-11-16T20:42:06.471Z,3.73
2022-11-16T20:44:38.171Z,3.75
2022-11-16T20:47:09.877Z,3.74
2022-11-16T20:49:41.536Z,3.73
2022-11-16T20:52:13.216Z,3.69
2022-11-16T20:54:44.949Z,3.68
2022-11-16T20:57:16.686Z,3.65
2022-11-16T20:59:48.733Z,3.64
2022-11-16T21:02:20.524Z,3.67
2022-11-16T21:04:56.142Z,3.67
2022-11-16T21:07:32.319Z,3.61
2022-11-16T21:10:22.274Z,3.57
2022-11-16T21:13:11.789Z,3.53
2022-11-16T21:15:44.384Z,3.57
2022-11-16T21:18:17.784Z,3.57
2022-11-16T21:20:49.417Z,3.52
2022-11-16T21:23:23.811Z,3.49
2022-11-16T21:25:55.781Z,3.45
2022-11-16T21:28:27.470Z,3.50
2022-11-16T21:31:03.505Z,3.50
2022-11-16T21:33:36.929Z,3.46
2022-11-16T21:36:11.416Z,3.44
2022-11-16T21:38:43.535Z,3.43
2022-11-16T21:41:16.712Z,3.45
2022-11-16T21:43:48.857Z,3.44
2022-11-16T21:46:23.253Z,3.46
2022-11-16T21:48:56.915Z,3.47
2022-11-16T21:51:29.210Z,3.50
2022-11-16T21:54:01.123Z,3.46
2022-11-16T21:56:32.797Z,3.44
2022-11-16T21:59:04.509Z,3.42
2022-11-16T22:01:52.578Z,3.40
2022-11-16T22:04:41.612Z,3.39
2022-11-16T22:07:36.652Z,3.43
2022-11-16T22:10:11.547Z,3.45
2022-11-16T22:12:43.315Z,3.47
2022-11-16T22:15:15.327Z,3.49
2022-11-16T22:17:47.208Z,3.51
2022-11-16T22:20:21.489Z,3.53
2022-11-16T22:22:53.386Z,3.50
2022-11-16T22:25:25.644Z,3.48
2022-11-16T22:30:52.039Z,3.42
2022-11-16T22:33:24.379Z,3.45
2022-11-16T22:35:56.151Z,3.44
2022-11-16T22:38:28.450Z,3.46
2022-11-16T22:41:00.510Z,3.46
2022-11-16T22:43:33.267Z,3.45
2022-11-16T22:46:06.845Z,3.41
2022-11-16T22:48:40.418Z,3.39
2022-11-16T22:51:19.127Z,3.40
2022-11-16T22:53:55.175Z,3.38
2022-11-16T22:56:27.606Z,3.39
2022-11-16T22:59:00.772Z,3.39
2022-11-16T23:01:32.610Z,3.40
2022-11-16T23:04:04.819Z,3.40
2022-11-16T23:06:37.727Z,3.41
2022-11-16T23:09:09.558Z,3.42
2022-11-16T23:11:58.582Z,3.44
2022-11-16T23:14:48.307Z,3.45
2022-11-16T23:17:20.259Z,3.46
2022-11-16T23:20:14.757Z,3.47
2022-11-16T23:23:19.236Z,3.46
2022-11-16T23:26:22.988Z,3.46
2022-11-16T23:28:55.394Z,3.48
2022-11-16T23:31:27.270Z,3.47
2022-11-16T23:33:59.172Z,3.46
2022-11-16T23:36:30.867Z,3.44
2022-11-16T23:39:03.143Z,3.46
2022-11-16T23:41:52.497Z,3.47
2022-11-16T23:44:24.441Z,3.47
2022-11-16T23:46:56.218Z,3.45
2022-11-16T23:49:28.078Z,3.49
2022-11-16T23:51:59.823Z,3.50
2022-11-16T23:54:31.618Z,3.56
2022-11-16T23:57:03.445Z,3.59
2022-11-16T23:59:35.507Z,3.59
